Home > Products > Valid Products > TAF

000
FTUS42 KMHX 302300
TAFEWN
TAF
KEWN 302321Z 0100/0124 00000KT P6SM SKC
     FM010800 00000KT 3SM BR SCT005
     FM011300 03005KT P6SM SCT025
     FM011800 03005KT P6SM SCT250=



000
FTUS42 KMHX 301700
TAFEWN
TAF
KEWN 301738Z 3018/0118 04005KT P6SM FEW035
     FM010800 00000KT 3SM BR SCT005
     FM011300 03004KT P6SM SCT025=



000
FTUS42 KMHX 301200 AAA
TAFEWN
TAF AMD
KEWN 301213Z 3012/0112 02005KT P6SM SCT100
     FM301800 04005KT P6SM SCT050
     FM010800 01002KT 3SM BR SCT008=



000
FTUS42 KMHX 301100
TAFEWN
TAF
KEWN 301120Z 3012/0112 01003KT 4SM BR SCT004
      TEMPO 3012/3013 2SM BR
     FM301300 02005KT P6SM SCT050 BKN100
     FM301800 04005KT P6SM SCT050
     FM010800 01002KT 3SM BR SCT008=



000
FTUS42 KMHX 300500
TAFEWN
TAF
KEWN 300537Z 3006/0106 01005KT P6SM SCT050 BKN100
     FM300900 01003KT 1SM BR BKN003
     FM301330 02005KT P6SM SCT050 BKN100
     FM301800 04005KT P6SM SCT050=



000
FTUS42 KMHX 300200 AAA
TAFEWN
TAF AMD
KEWN 300237Z 3003/3024 35005KT P6SM VCSH OVC080
     FM300600 01005KT 1SM BR BKN003
     FM301400 01005KT P6SM SCT100
     FM301900 01005KT P6SM FEW040=



000
FTUS42 KMHX 292300
TAFEWN
TAF
KEWN 292324Z 3000/3024 01006KT P6SM VCSH OVC120
     FM300200 02005KT P6SM VCSH SCT040 BKN080
     FM300600 01005KT 1SM BR BKN003
     FM301400 01005KT P6SM SCT100
     FM301900 01005KT P6SM FEW040=



000
FTUS42 KMHX 291700 RRA
TAFEWN
TAF
KEWN 291740Z 2918/3018 01006KT P6SM OVC150
     FM300000 02005KT P6SM VCSH SCT040 BKN080
     FM300600 01003KT 1SM BR BKN003
     FM301400 01005KT P6SM SCT100=



000
FTUS42 KMHX 291200 AAA
TAFEWN
TAF AMD
KEWN 291254Z 2913/3012 00000KT 1/4SM FG VV002
     FM291400 35005KT P6SM SCT050 BKN100
     FM291800 01006KT P6SM VCSH SCT025 OVC050
     FM300000 02005KT 5SM -RA SCT020 OVC040=



000
FTUS42 KMHX 291100 CCA
TAFEWN
TAF COR
KEWN 291123Z 2911/3012 00000KT 1/4SM FG VV002
     FM291330 35005KT P6SM SCT050 BKN100
     FM291800 01006KT P6SM VCSH SCT025 OVC050
     FM300000 02005KT 5SM -RA SCT020 OVC040=



000
FTUS42 KMHX 291100
TAFEWN
TAF
KEWN 291120Z 2912/3012 00000KT 1SM BR BKN003
     FM291330 35005KT P6SM SCT050 BKN100
     FM291800 01006KT P6SM VCSH SCT025 OVC050
     FM300000 02005KT 5SM -RA SCT020 OVC040
     FM300600 01004KT 4SM BR BKN100=



000
FTUS42 KMHX 290500 RRA
TAFEWN
TAF
KEWN 290542Z 2906/3006 00000KT 3SM BR SCT006 BKN150
      TEMPO 2906/2907 1SM BR VV005
     FM290800 00000KT 3SM BR BKN006
     FM291230 35005KT P6SM SCT050 BKN100
     FM291800 01006KT P6SM VCSH SCT025 OVC050
     FM300000 02005KT 5SM -RA SCT020 OVC040=



000
FTUS42 KMHX 282300 RRA
TAFEWN
TAF
KEWN 282350Z 2900/2924 00000KT P6SM SKC
     FM290500 00000KT 3SM BR FEW010 BKN180
     FM291200 01005KT P6SM BKN100=



000
FTUS42 KMHX 281700
TAFEWN
TAF
KEWN 281737Z 2818/2918 05006KT P6SM FEW035 SCT250
     FM290900 00000KT 3SM BR BKN250
     FM291200 01005KT P6SM BKN120=



000
FTUS42 KMHX 281400 AAA
TAFEWN
TAF AMD
KEWN 281429Z 2814/2912 05005KT P6SM SCT010
      TEMPO 2814/2816 BKN010
     FM281600 05006KT P6SM SCT080
     FM290900 00000KT 3SM BR BKN250=



000
FTUS42 KMHX 281100 RRA
TAFEWN
TAF
KEWN 281144Z 2812/2912 05006KT P6SM SCT080
     FM290900 00000KT 3SM BR BKN250=



000
FTUS42 KMHX 280500 RRA
TAFEWN
TAF
KEWN 280543Z 2806/2906 00000KT P6SM SKC
     FM281000 00000KT 3SM BR SCT005
     FM281300 05008KT P6SM SCT030=



    US Dept of Commerce
    National Oceanic and Atmospheric Administration
    National Weather Service
    1325 East West Highway
    Silver Spring, MD 20910
    Page Author: NWS Internet Services Team
Disclaimer
Information Quality
Credits
Glossary
Privacy Policy
Freedom of Information Act (FOIA)
About Us
Career Opportunities